createdAt,value
2019-03-22T00:00:52.773Z,51.33
2019-03-22T00:01:57.716Z,51.42
2019-03-22T00:03:02.241Z,51.48
2019-03-22T00:04:07.007Z,51.54
2019-03-22T00:05:11.760Z,51.67
2019-03-22T00:06:16.702Z,51.74
2019-03-22T00:07:21.135Z,51.86
2019-03-22T00:08:25.525Z,52.01
2019-03-22T00:09:29.887Z,52.19
2019-03-22T00:10:34.649Z,52.29
2019-03-22T00:11:39.350Z,52.38
2019-03-22T00:12:44.047Z,52.45
2019-03-22T00:13:48.799Z,52.48
2019-03-22T00:14:53.492Z,52.53
2019-03-22T00:15:58.015Z,52.53
2019-03-22T00:17:02.856Z,52.53
2019-03-22T00:18:07.479Z,52.48
2019-03-22T00:19:12.386Z,52.41
2019-03-22T00:20:17.018Z,52.36
2019-03-22T00:21:21.520Z,52.36
2019-03-22T00:22:26.087Z,52.21
2019-03-22T00:23:30.594Z,52.00
2019-03-22T00:24:35.038Z,51.82
2019-03-22T00:25:39.508Z,51.69
2019-03-22T00:26:44.838Z,51.56
2019-03-22T00:27:49.538Z,51.47
2019-03-22T00:28:54.558Z,51.42
2019-03-22T00:29:59.367Z,51.34
2019-03-22T00:31:04.048Z,51.29
2019-03-22T00:32:08.742Z,51.28
2019-03-22T00:33:13.717Z,51.25
2019-03-22T00:34:18.343Z,51.22
2019-03-22T00:35:23.279Z,51.24
2019-03-22T00:36:27.898Z,51.31
2019-03-22T00:37:32.338Z,51.30
2019-03-22T00:38:37.284Z,51.26
2019-03-22T00:39:42.375Z,51.29
2019-03-22T00:40:46.742Z,51.28
2019-03-22T00:41:51.440Z,51.26
2019-03-22T00:42:56.575Z,51.28
2019-03-22T00:44:01.260Z,51.26
2019-03-22T00:45:07.446Z,51.24
2019-03-22T00:46:11.895Z,51.23
2019-03-22T00:47:16.256Z,51.22
2019-03-22T00:48:20.882Z,51.21
2019-03-22T00:49:25.571Z,51.24
2019-03-22T00:50:30.257Z,51.21
2019-03-22T00:51:35.236Z,51.19
2019-03-22T00:52:39.915Z,51.24
2019-03-22T00:53:44.534Z,51.27
2019-03-22T00:54:49.609Z,51.24
2019-03-22T00:55:54.054Z,51.28
2019-03-22T00:56:58.585Z,51.33
2019-03-22T00:58:03.067Z,51.36
2019-03-22T00:59:07.591Z,51.37
2019-03-22T01:00:12.587Z,51.35
2019-03-22T01:01:17.118Z,51.37
2019-03-22T01:02:22.050Z,51.40
2019-03-22T01:03:26.773Z,51.40
2019-03-22T01:04:31.791Z,51.40
2019-03-22T01:05:36.872Z,51.38
2019-03-22T01:06:41.321Z,51.40
2019-03-22T01:07:45.834Z,51.44
2019-03-22T01:08:50.458Z,51.43
2019-03-22T01:09:54.974Z,51.42
2019-03-22T01:11:00.382Z,51.43
2019-03-22T01:12:04.922Z,51.44
2019-03-22T01:13:09.791Z,51.46
2019-03-22T01:14:14.246Z,51.49
2019-03-22T01:15:19.154Z,51.51
2019-03-22T01:16:23.962Z,51.57
2019-03-22T01:17:28.567Z,51.55
2019-03-22T01:18:33.278Z,51.58
2019-03-22T01:19:37.986Z,51.62
2019-03-22T01:20:42.435Z,51.62
2019-03-22T01:21:47.043Z,51.67
2019-03-22T01:22:51.866Z,51.72
2019-03-22T01:23:56.596Z,51.72
2019-03-22T01:25:01.031Z,51.71
2019-03-22T01:26:05.811Z,51.74
2019-03-22T01:27:10.630Z,51.76
2019-03-22T01:28:15.084Z,51.75
2019-03-22T01:29:20.083Z,51.73
2019-03-22T01:30:24.530Z,51.74
2019-03-22T01:31:29.331Z,51.80
2019-03-22T01:32:33.846Z,51.82
2019-03-22T01:33:38.647Z,51.85
2019-03-22T01:34:43.223Z,51.90
2019-03-22T01:35:47.973Z,51.89
2019-03-22T01:36:53.207Z,51.88
2019-03-22T01:37:58.015Z,51.88
2019-03-22T01:39:02.555Z,51.91
2019-03-22T01:40:07.978Z,51.90
2019-03-22T01:41:12.532Z,51.90
2019-03-22T01:42:17.605Z,51.94
2019-03-22T01:43:22.124Z,52.03
2019-03-22T01:44:26.770Z,52.06
2019-03-22T01:45:31.854Z,52.06
2019-03-22T01:46:36.399Z,52.05
2019-03-22T01:47:40.918Z,52.05
2019-03-22T01:48:45.614Z,52.04
2019-03-22T01:49:50.131Z,52.06
2019-03-22T01:50:54.938Z,52.08
2019-03-22T01:51:59.755Z,52.07
2019-03-22T01:53:04.348Z,52.11
2019-03-22T01:54:08.830Z,52.18
2019-03-22T01:55:14.212Z,52.16
2019-03-22T01:56:18.795Z,52.20
2019-03-22T01:57:23.825Z,52.21
2019-03-22T01:58:28.272Z,52.21
2019-03-22T01:59:33.103Z,52.19
2019-03-22T02:00:37.939Z,52.20
2019-03-22T02:01:42.574Z,52.20
2019-03-22T02:02:47.450Z,52.26
2019-03-22T02:03:52.264Z,52.27
2019-03-22T02:04:57.066Z,52.34
2019-03-22T02:06:02.334Z,52.59
2019-03-22T02:07:07.334Z,52.78
2019-03-22T02:08:11.876Z,52.89
2019-03-22T02:09:16.404Z,52.99
2019-03-22T02:10:21.199Z,53.09
2019-03-22T02:11:25.821Z,53.29
2019-03-22T02:12:30.435Z,53.46
2019-03-22T02:13:35.458Z,53.62
2019-03-22T02:14:39.872Z,53.82
2019-03-22T02:15:44.787Z,53.95
2019-03-22T02:16:49.595Z,54.02
2019-03-22T02:17:54.320Z,54.05
2019-03-22T02:18:59.235Z,54.11
2019-03-22T02:20:04.480Z,54.16
2019-03-22T02:21:09.023Z,54.09
2019-03-22T02:22:13.817Z,54.00
2019-03-22T02:23:18.831Z,53.91
2019-03-22T02:24:23.743Z,53.78
2019-03-22T02:25:28.306Z,53.65
2019-03-22T02:26:33.076Z,53.54
2019-03-22T02:27:38.247Z,53.52
2019-03-22T02:28:42.739Z,53.46
2019-03-22T02:29:47.186Z,53.39
2019-03-22T02:30:52.019Z,53.35
2019-03-22T02:31:56.773Z,53.34
2019-03-22T02:33:01.604Z,53.32
2019-03-22T02:34:06.816Z,53.29
2019-03-22T02:35:26.957Z,53.25
2019-03-22T02:36:17.644Z,53.22
2019-03-22T02:37:22.658Z,53.19
2019-03-22T02:38:27.138Z,53.19
2019-03-22T02:39:32.025Z,53.16
2019-03-22T02:40:37.167Z,53.15
2019-03-22T02:41:41.892Z,53.13
2019-03-22T02:42:46.608Z,53.10
2019-03-22T02:43:54.622Z,53.10
2019-03-22T02:44:58.141Z,53.12
2019-03-22T02:46:02.840Z,53.15
2019-03-22T02:47:07.601Z,53.16
2019-03-22T02:48:12.046Z,53.14
2019-03-22T02:49:16.671Z,53.14
2019-03-22T02:50:21.609Z,53.15
2019-03-22T02:51:26.234Z,53.17
2019-03-22T02:52:31.109Z,53.21
2019-03-22T02:53:35.805Z,53.22
2019-03-22T02:54:40.739Z,53.23
2019-03-22T02:55:45.397Z,53.20
2019-03-22T02:56:50.128Z,53.17
2019-03-22T02:57:54.968Z,53.16
2019-03-22T02:58:59.813Z,53.18
2019-03-22T03:00:05.555Z,53.21
2019-03-22T03:01:10.685Z,53.24
2019-03-22T03:02:15.127Z,53.28
2019-03-22T03:03:19.740Z,53.30
2019-03-22T03:04:24.595Z,53.27
2019-03-22T03:05:29.108Z,53.29
2019-03-22T03:06:33.679Z,53.29
2019-03-22T03:07:38.076Z,53.30
2019-03-22T03:08:43.010Z,53.31
2019-03-22T03:09:47.709Z,53.31
2019-03-22T03:10:52.317Z,53.32
2019-03-22T03:11:57.007Z,53.34
2019-03-22T03:13:01.783Z,53.41
2019-03-22T03:14:06.297Z,53.47
2019-03-22T03:15:11.394Z,53.49
2019-03-22T03:16:16.081Z,53.52
2019-03-22T03:17:21.052Z,53.55
2019-03-22T03:18:25.494Z,53.56
2019-03-22T03:19:30.024Z,53.58
2019-03-22T03:20:34.472Z,53.59
2019-03-22T03:21:38.964Z,53.62
2019-03-22T03:22:43.587Z,53.67
2019-03-22T03:23:48.905Z,53.73
2019-03-22T03:24:53.981Z,53.78
2019-03-22T03:25:58.700Z,53.81
2019-03-22T03:27:03.571Z,53.79
2019-03-22T03:28:08.082Z,53.78
2019-03-22T03:29:12.524Z,53.75
2019-03-22T03:30:18.483Z,53.73
2019-03-22T03:31:23.140Z,53.71
2019-03-22T03:32:27.922Z,53.73
2019-03-22T03:33:32.689Z,53.77
2019-03-22T03:34:37.389Z,53.82
2019-03-22T03:35:42.188Z,53.88
2019-03-22T03:36:47.305Z,53.90
2019-03-22T03:37:51.833Z,53.95
2019-03-22T03:38:56.829Z,53.99
2019-03-22T03:40:01.565Z,54.04
2019-03-22T03:41:06.892Z,54.13
2019-03-22T03:42:12.033Z,54.19
2019-03-22T03:43:16.794Z,54.27
2019-03-22T03:44:21.251Z,54.28
2019-03-22T03:45:36.899Z,54.28
2019-03-22T03:46:41.566Z,54.31
2019-03-22T03:47:46.174Z,54.27
2019-03-22T03:48:50.537Z,54.30
2019-03-22T03:49:55.394Z,54.25
2019-03-22T03:51:00.261Z,54.22
2019-03-22T03:52:05.782Z,54.21
2019-03-22T03:53:10.294Z,54.18
2019-03-22T03:54:14.658Z,54.20
2019-03-22T03:55:19.011Z,54.19
2019-03-22T03:56:23.703Z,54.16
2019-03-22T03:57:28.308Z,54.17
2019-03-22T03:58:32.991Z,54.23
2019-03-22T03:59:37.681Z,54.26
2019-03-22T04:00:42.645Z,54.30
2019-03-22T04:01:47.339Z,54.38
2019-03-22T04:02:51.760Z,54.45
2019-03-22T04:03:56.528Z,54.54
2019-03-22T04:05:01.136Z,54.58
2019-03-22T04:06:05.718Z,54.59
2019-03-22T04:07:10.434Z,54.57
2019-03-22T04:08:15.193Z,54.56
2019-03-22T04:09:19.801Z,54.53
2019-03-22T04:10:24.566Z,54.55
2019-03-22T04:11:29.185Z,54.56
2019-03-22T04:12:33.567Z,54.55
2019-03-22T04:13:38.184Z,54.56
2019-03-22T04:14:42.804Z,54.57
2019-03-22T04:15:47.668Z,54.59
2019-03-22T04:16:52.126Z,54.62
2019-03-22T04:17:56.662Z,54.64
2019-03-22T04:19:01.586Z,54.68
2019-03-22T04:20:06.281Z,54.67
2019-03-22T04:21:10.795Z,54.66
2019-03-22T04:22:15.425Z,54.62
2019-03-22T04:23:20.433Z,54.61
2019-03-22T04:24:24.957Z,54.60
2019-03-22T04:25:30.047Z,54.64
2019-03-22T04:26:34.762Z,54.67
2019-03-22T04:27:39.607Z,54.68
2019-03-22T04:28:45.022Z,54.68
2019-03-22T04:29:49.900Z,54.65
2019-03-22T04:30:54.392Z,54.70
2019-03-22T04:31:59.195Z,54.74
2019-03-22T04:33:06.371Z,54.75
2019-03-22T04:34:10.067Z,54.78
2019-03-22T04:35:14.872Z,54.80
2019-03-22T04:36:19.415Z,54.88
2019-03-22T04:37:23.916Z,54.89
2019-03-22T04:38:28.370Z,54.81
2019-03-22T04:39:33.438Z,54.80
2019-03-22T04:40:38.149Z,54.79
2019-03-22T04:41:42.982Z,54.80
2019-03-22T04:42:47.542Z,54.90
2019-03-22T04:43:52.070Z,54.94
2019-03-22T04:44:56.915Z,54.91
2019-03-22T04:46:02.139Z,54.90
2019-03-22T04:47:07.455Z,54.92
2019-03-22T04:48:27.076Z,54.94
2019-03-22T04:49:34.051Z,54.93
2019-03-22T04:50:42.004Z,54.93
2019-03-22T04:51:47.322Z,55.00
2019-03-22T04:52:53.098Z,55.04
2019-03-22T04:54:01.784Z,55.07
2019-03-22T04:55:06.819Z,55.10
2019-03-22T04:56:14.570Z,55.06
2019-03-22T04:57:20.351Z,55.07
2019-03-22T04:58:27.482Z,55.09
2019-03-22T04:59:33.872Z,55.13
2019-03-22T05:00:39.638Z,55.15
2019-03-22T05:01:47.261Z,55.18
2019-03-22T05:02:52.956Z,55.20
2019-03-22T05:03:59.243Z,55.23
2019-03-22T05:05:05.037Z,55.29
2019-03-22T05:06:11.732Z,55.34
2019-03-22T05:07:17.786Z,55.37
2019-03-22T05:08:25.190Z,55.45
2019-03-22T05:09:32.331Z,55.52
2019-03-22T05:10:38.274Z,55.55
2019-03-22T05:11:44.679Z,55.56
2019-03-22T05:12:50.424Z,55.54
2019-03-22T05:13:57.836Z,55.52
2019-03-22T05:15:03.015Z,55.54
2019-03-22T05:16:11.704Z,55.50
2019-03-22T05:17:17.122Z,55.54
2019-03-22T05:18:22.447Z,55.58
2019-03-22T05:19:29.930Z,55.69
2019-03-22T05:20:36.149Z,55.76
2019-03-22T05:21:41.463Z,55.81
2019-03-22T05:22:47.207Z,55.91
2019-03-22T05:23:54.576Z,56.04
2019-03-22T05:25:01.931Z,56.25
2019-03-22T05:26:06.744Z,56.48
2019-03-22T05:27:12.952Z,56.55
2019-03-22T05:28:17.875Z,56.61
2019-03-22T05:29:30.518Z,56.61
2019-03-22T05:31:24.676Z,56.64
2019-03-22T05:32:29.186Z,56.63
2019-03-22T05:33:33.880Z,56.41
2019-03-22T05:34:38.836Z,56.48
2019-03-22T05:35:43.189Z,56.50
2019-03-22T05:36:47.623Z,56.46
2019-03-22T05:37:51.999Z,56.45
2019-03-22T05:38:56.936Z,56.48
2019-03-22T05:40:01.624Z,56.53
2019-03-22T05:41:06.311Z,56.53
2019-03-22T05:42:10.754Z,56.49
2019-03-22T05:43:15.386Z,56.46
2019-03-22T05:44:20.115Z,56.47
2019-03-22T05:45:25.223Z,56.47
2019-03-22T05:46:30.087Z,56.46
2019-03-22T05:47:34.776Z,56.45
2019-03-22T05:48:39.466Z,56.47
2019-03-22T05:49:44.405Z,56.46
2019-03-22T05:50:48.991Z,56.45
2019-03-22T05:51:53.758Z,56.43
2019-03-22T05:52:58.392Z,56.40
2019-03-22T05:54:03.123Z,56.37
2019-03-22T05:55:08.379Z,56.34
2019-03-22T05:56:13.162Z,56.24
2019-03-22T05:57:17.814Z,56.15
2019-03-22T05:58:22.544Z,56.06
2019-03-22T05:59:27.563Z,56.02
2019-03-22T06:00:32.375Z,56.00
2019-03-22T06:01:37.367Z,55.95
2019-03-22T06:02:42.106Z,55.88
2019-03-22T06:03:46.862Z,55.84
2019-03-22T06:04:51.962Z,55.80
2019-03-22T06:05:56.689Z,55.80
2019-03-22T06:07:01.067Z,55.76
2019-03-22T06:08:06.218Z,55.78
2019-03-22T06:09:11.555Z,55.80
2019-03-22T06:10:16.400Z,55.85
2019-03-22T06:11:21.304Z,55.89
2019-03-22T06:12:25.738Z,55.91
2019-03-22T06:13:31.096Z,55.93
2019-03-22T06:14:36.175Z,55.94
2019-03-22T06:15:40.895Z,55.92
2019-03-22T06:16:45.642Z,55.97
2019-03-22T06:17:51.880Z,55.95
2019-03-22T06:18:57.190Z,55.95
2019-03-22T06:20:02.166Z,55.90
2019-03-22T06:21:06.755Z,55.88
2019-03-22T06:22:11.386Z,55.88
2019-03-22T06:23:15.764Z,55.91
2019-03-22T06:24:22.332Z,56.14
2019-03-22T06:25:26.817Z,56.90
2019-03-22T06:26:31.931Z,57.02
2019-03-22T06:27:36.950Z,57.42
2019-03-22T06:28:41.635Z,57.74
2019-03-22T06:29:54.029Z,57.95
2019-03-22T06:30:55.682Z,58.22
2019-03-22T06:32:00.048Z,58.63
2019-03-22T06:33:04.489Z,58.94
2019-03-22T06:34:08.926Z,57.97
2019-03-22T06:35:13.460Z,57.08
2019-03-22T06:36:18.655Z,56.45
2019-03-22T06:37:23.524Z,56.14
2019-03-22T06:38:27.964Z,56.01
2019-03-22T06:39:32.655Z,55.89
2019-03-22T06:40:37.037Z,55.76
2019-03-22T06:41:41.824Z,55.54
2019-03-22T06:42:46.522Z,55.34
2019-03-22T06:43:51.137Z,55.34
2019-03-22T06:44:56.009Z,55.32
2019-03-22T06:46:00.690Z,55.42
2019-03-22T06:47:05.942Z,55.32
2019-03-22T06:48:10.942Z,55.43
2019-03-22T06:49:15.288Z,55.48
2019-03-22T06:50:19.742Z,55.46
2019-03-22T06:51:24.350Z,55.47
2019-03-22T06:52:29.066Z,55.50
2019-03-22T06:53:33.442Z,55.44
2019-03-22T06:54:38.453Z,55.45
2019-03-22T06:55:43.283Z,55.41
2019-03-22T06:56:47.639Z,55.34
2019-03-22T06:57:52.452Z,55.34
2019-03-22T06:58:56.898Z,55.37
2019-03-22T07:00:06.893Z,55.37
2019-03-22T07:01:08.175Z,55.35
2019-03-22T07:02:12.961Z,55.28
2019-03-22T07:03:17.983Z,55.20
2019-03-22T07:04:22.818Z,55.14
2019-03-22T07:05:27.682Z,55.17
2019-03-22T07:06:32.646Z,55.20
2019-03-22T07:07:37.199Z,55.23
2019-03-22T07:08:41.704Z,55.32
2019-03-22T07:09:47.764Z,55.45
2019-03-22T07:10:52.255Z,55.52
2019-03-22T07:11:57.095Z,55.63
2019-03-22T07:13:01.807Z,55.73
2019-03-22T07:14:06.515Z,55.78
2019-03-22T07:15:12.939Z,55.87
2019-03-22T07:16:17.740Z,56.08
2019-03-22T07:17:22.184Z,56.26
2019-03-22T07:18:27.208Z,56.47
2019-03-22T07:19:31.932Z,56.68
2019-03-22T07:20:36.763Z,56.84
2019-03-22T07:21:42.225Z,56.95
2019-03-22T07:22:47.252Z,57.00
2019-03-22T07:23:51.776Z,57.00
2019-03-22T07:24:56.545Z,56.95
2019-03-22T07:26:01.347Z,56.92
2019-03-22T07:27:06.184Z,56.89
2019-03-22T07:28:10.962Z,56.86
2019-03-22T07:29:15.818Z,56.81
2019-03-22T07:30:22.493Z,56.77
2019-03-22T07:31:27.214Z,56.78
2019-03-22T07:32:31.988Z,56.83
2019-03-22T07:33:36.435Z,56.83
2019-03-22T07:34:40.968Z,56.81
2019-03-22T07:35:45.428Z,56.95
2019-03-22T07:36:49.902Z,57.04
2019-03-22T07:37:54.620Z,57.14
2019-03-22T07:38:59.156Z,57.23
2019-03-22T07:40:04.119Z,57.32
2019-03-22T07:41:08.655Z,57.33
2019-03-22T07:42:13.032Z,57.36
2019-03-22T07:43:17.814Z,57.37
2019-03-22T07:44:22.255Z,57.36
2019-03-22T07:45:26.702Z,57.27
2019-03-22T07:46:31.163Z,57.18
2019-03-22T07:47:35.704Z,57.14
2019-03-22T07:48:40.532Z,57.21
2019-03-22T07:49:45.059Z,57.28
2019-03-22T07:50:49.522Z,57.35
2019-03-22T07:51:54.279Z,57.31
2019-03-22T07:52:58.737Z,57.31
2019-03-22T07:54:03.979Z,57.39
2019-03-22T07:55:08.778Z,57.36
2019-03-22T07:56:13.337Z,57.39
2019-03-22T07:57:18.068Z,57.48
2019-03-22T07:58:22.962Z,57.65
2019-03-22T07:59:27.422Z,57.77
2019-03-22T08:00:32.219Z,57.89
2019-03-22T08:01:36.788Z,58.03
2019-03-22T08:02:41.234Z,58.17
2019-03-22T08:03:46.274Z,58.31
2019-03-22T08:04:50.714Z,58.41
2019-03-22T08:05:55.248Z,58.52
2019-03-22T08:07:01.314Z,58.51
2019-03-22T08:08:05.855Z,58.48
2019-03-22T08:09:10.371Z,58.39
2019-03-22T08:10:15.137Z,58.34
2019-03-22T08:11:20.087Z,58.30
2019-03-22T08:12:25.065Z,58.33
2019-03-22T08:13:29.801Z,58.44
2019-03-22T08:14:34.284Z,58.47
2019-03-22T08:15:38.795Z,58.39
2019-03-22T08:16:43.491Z,58.25
2019-03-22T08:17:48.175Z,58.16
2019-03-22T08:18:52.789Z,58.14
2019-03-22T08:19:57.548Z,58.14
2019-03-22T08:21:02.172Z,58.12
2019-03-22T08:22:07.106Z,58.08
2019-03-22T08:23:22.230Z,58.09
2019-03-22T08:24:26.668Z,57.96
2019-03-22T08:25:32.469Z,57.79
2019-03-22T08:26:37.239Z,57.58
2019-03-22T08:27:41.607Z,57.44
2019-03-22T08:28:46.535Z,57.51
2019-03-22T08:29:51.483Z,57.46
2019-03-22T08:30:55.855Z,57.39
2019-03-22T08:32:00.872Z,57.18
2019-03-22T08:33:05.398Z,57.11
2019-03-22T08:34:10.247Z,56.91
2019-03-22T08:35:14.926Z,56.93
2019-03-22T08:36:19.456Z,56.96
2019-03-22T08:37:23.944Z,57.03
2019-03-22T08:38:28.258Z,56.78
2019-03-22T08:39:32.873Z,56.65
2019-03-22T08:40:37.235Z,56.55
2019-03-22T08:41:41.927Z,56.30
2019-03-22T08:42:46.562Z,56.21
2019-03-22T08:43:51.154Z,56.18
2019-03-22T08:44:55.601Z,56.21
2019-03-22T08:46:00.018Z,56.14
2019-03-22T08:47:05.027Z,55.91
2019-03-22T08:48:10.081Z,55.58
2019-03-22T08:49:14.929Z,55.50
2019-03-22T08:50:19.785Z,55.42
2019-03-22T08:51:24.324Z,55.22
2019-03-22T08:52:28.868Z,54.98
2019-03-22T08:53:33.631Z,55.12
2019-03-22T08:54:38.507Z,55.16
2019-03-22T08:55:43.444Z,55.00
2019-03-22T08:56:48.237Z,54.87
2019-03-22T08:57:53.006Z,54.79
2019-03-22T08:59:52.944Z,54.40
2019-03-22T09:00:58.298Z,54.41
2019-03-22T09:02:02.876Z,54.23
2019-03-22T09:03:08.263Z,54.08
2019-03-22T09:04:14.423Z,53.56
2019-03-22T09:05:19.533Z,53.20
2019-03-22T09:06:24.414Z,53.23
2019-03-22T09:07:29.295Z,53.16
2019-03-22T09:08:34.407Z,53.04
2019-03-22T09:09:41.763Z,52.93
2019-03-22T09:10:45.942Z,52.89
2019-03-22T09:11:50.320Z,52.87
2019-03-22T09:12:55.053Z,52.76
2019-03-22T09:13:59.991Z,52.27
2019-03-22T09:15:04.887Z,51.72
2019-03-22T09:16:09.305Z,51.07
2019-03-22T09:17:14.517Z,50.41
2019-03-22T09:18:18.974Z,50.27
2019-03-22T09:19:23.738Z,50.12
2019-03-22T09:20:28.734Z,49.97
2019-03-22T09:21:33.404Z,49.56
2019-03-22T09:22:37.829Z,49.49
2019-03-22T09:23:42.449Z,49.45
2019-03-22T09:24:47.385Z,49.32
2019-03-22T09:25:51.822Z,49.12
2019-03-22T09:26:56.566Z,48.99
2019-03-22T09:28:01.235Z,48.81
2019-03-22T09:29:06.005Z,48.52
2019-03-22T09:30:11.319Z,48.12
2019-03-22T09:31:16.309Z,47.88
2019-03-22T09:32:21.283Z,47.75
2019-03-22T09:33:25.621Z,47.56
2019-03-22T09:34:34.014Z,47.30
2019-03-22T09:35:36.157Z,47.08
2019-03-22T09:36:41.025Z,46.78
2019-03-22T09:37:45.895Z,46.31
2019-03-22T09:38:50.340Z,46.13
2019-03-22T09:39:54.704Z,45.89
2019-03-22T09:40:59.399Z,45.48
2019-03-22T09:42:03.976Z,45.16
2019-03-22T09:43:08.797Z,45.25
2019-03-22T09:44:13.555Z,44.87
2019-03-22T09:45:18.052Z,44.95
2019-03-22T09:46:22.456Z,44.36
2019-03-22T09:47:26.830Z,44.00
2019-03-22T09:48:31.439Z,43.84
2019-03-22T09:49:36.055Z,43.94
2019-03-22T09:50:40.843Z,43.88
2019-03-22T09:51:45.270Z,43.89
2019-03-22T09:52:49.739Z,43.12
2019-03-22T09:53:54.259Z,42.57
2019-03-22T09:55:12.190Z,42.48
2019-03-22T09:56:05.041Z,42.21
2019-03-22T09:57:09.971Z,42.41
2019-03-22T09:58:14.472Z,41.99
2019-03-22T09:59:19.469Z,41.75
2019-03-22T10:00:34.292Z,41.42
2019-03-22T10:01:39.360Z,41.44
2019-03-22T10:02:44.219Z,41.07
2019-03-22T10:03:48.962Z,40.97
2019-03-22T10:04:54.105Z,40.62
2019-03-22T10:05:58.870Z,40.47
2019-03-22T10:07:03.255Z,39.88
2019-03-22T10:08:08.087Z,37.73
2019-03-22T10:09:12.955Z,37.83
2019-03-22T10:10:17.704Z,37.96
2019-03-22T10:11:22.304Z,37.78
2019-03-22T10:12:27.058Z,37.74
2019-03-22T10:13:31.780Z,37.21
2019-03-22T10:14:36.207Z,37.20
2019-03-22T10:15:41.095Z,36.79
2019-03-22T10:16:47.609Z,36.28
2019-03-22T10:17:52.084Z,36.60
2019-03-22T10:18:56.646Z,36.31
2019-03-22T10:20:01.631Z,35.62
2019-03-22T10:21:06.108Z,34.99
2019-03-22T10:22:10.503Z,34.94
2019-03-22T10:23:15.434Z,35.07
2019-03-22T10:24:20.044Z,35.17
2019-03-22T10:25:25.047Z,35.00
2019-03-22T10:26:29.664Z,35.19
2019-03-22T10:27:34.349Z,35.17
2019-03-22T10:28:39.716Z,35.34
2019-03-22T10:29:44.185Z,34.92
2019-03-22T10:30:48.668Z,34.82
2019-03-22T10:31:53.621Z,34.71
2019-03-22T10:32:58.649Z,34.51
2019-03-22T10:34:03.099Z,34.45
2019-03-22T10:35:08.416Z,34.20
2019-03-22T10:36:13.192Z,33.83
2019-03-22T10:37:18.000Z,33.27
2019-03-22T10:38:31.012Z,32.72
2019-03-22T10:39:28.864Z,32.49
2019-03-22T10:40:33.721Z,32.40
2019-03-22T10:41:38.155Z,32.35
2019-03-22T10:42:42.925Z,32.11
2019-03-22T10:43:47.762Z,32.01
2019-03-22T10:44:52.501Z,31.91
2019-03-22T10:45:57.368Z,32.00
2019-03-22T10:47:02.422Z,31.34
2019-03-22T10:48:07.043Z,31.60
2019-03-22T10:49:11.587Z,31.62
2019-03-22T10:50:16.667Z,31.48
2019-03-22T10:51:21.938Z,31.34
2019-03-22T10:52:26.570Z,31.21
2019-03-22T10:53:31.761Z,31.00
2019-03-22T10:54:37.010Z,30.72
2019-03-22T10:55:41.681Z,30.71
2019-03-22T10:56:47.571Z,30.61
2019-03-22T10:57:55.331Z,30.54
2019-03-22T10:58:59.191Z,30.54
2019-03-22T11:00:04.347Z,30.64
2019-03-22T11:01:09.065Z,30.72
2019-03-22T11:02:13.516Z,30.58
2019-03-22T11:03:18.392Z,30.34
2019-03-22T11:04:23.159Z,30.22
2019-03-22T11:05:27.773Z,30.10
2019-03-22T11:06:32.221Z,30.16
2019-03-22T11:07:36.998Z,30.20
2019-03-22T11:08:41.397Z,30.28
2019-03-22T11:09:46.104Z,30.32
2019-03-22T11:10:50.719Z,30.15
2019-03-22T11:11:55.276Z,29.96
2019-03-22T11:13:00.218Z,29.92
2019-03-22T11:14:05.021Z,29.76
2019-03-22T11:15:10.044Z,29.81
2019-03-22T11:16:14.925Z,29.81
2019-03-22T11:17:19.942Z,29.90
2019-03-22T11:18:24.422Z,29.66
2019-03-22T11:19:28.944Z,29.30
2019-03-22T11:20:33.656Z,28.99
2019-03-22T11:21:38.427Z,28.95
2019-03-22T11:22:43.030Z,29.22
2019-03-22T11:23:47.487Z,29.41
2019-03-22T11:24:52.193Z,29.45
2019-03-22T11:26:03.820Z,29.32
2019-03-22T11:27:03.093Z,29.23
2019-03-22T11:28:07.815Z,29.24
2019-03-22T11:29:12.853Z,29.11
2019-03-22T11:30:17.845Z,28.92
2019-03-22T11:31:28.306Z,28.81
2019-03-22T11:32:28.855Z,28.70
2019-03-22T11:33:33.658Z,28.80
2019-03-22T11:34:38.315Z,28.88
2019-03-22T11:35:43.202Z,28.98
2019-03-22T11:36:48.024Z,28.94
2019-03-22T11:37:52.471Z,28.67
2019-03-22T11:38:57.185Z,28.39
2019-03-22T11:40:01.877Z,28.28
2019-03-22T11:41:06.994Z,28.24
2019-03-22T11:42:12.258Z,28.20
2019-03-22T11:43:17.047Z,28.31
2019-03-22T11:44:21.771Z,28.30
2019-03-22T11:45:26.695Z,28.18
2019-03-22T11:46:31.174Z,28.10
2019-03-22T11:47:36.486Z,28.12
2019-03-22T11:48:41.297Z,28.16
2019-03-22T11:49:47.420Z,28.33
2019-03-22T11:50:52.121Z,28.28
2019-03-22T11:51:56.491Z,28.28
2019-03-22T11:53:01.251Z,28.32
2019-03-22T11:54:05.806Z,28.24
2019-03-22T11:55:11.144Z,28.06
2019-03-22T11:56:15.666Z,28.00
2019-03-22T11:57:20.575Z,27.92
2019-03-22T11:58:25.348Z,27.92
2019-03-22T11:59:29.808Z,27.87
2019-03-22T12:00:34.335Z,27.94
2019-03-22T12:01:38.862Z,28.07
2019-03-22T12:02:43.946Z,28.14
2019-03-22T12:03:48.487Z,28.28
2019-03-22T12:04:52.980Z,28.08
2019-03-22T12:05:57.501Z,28.12
2019-03-22T12:07:02.164Z,28.15
2019-03-22T12:08:06.686Z,28.28
2019-03-22T12:09:11.541Z,28.28
2019-03-22T12:10:17.011Z,27.96
2019-03-22T12:11:21.655Z,27.80
2019-03-22T12:12:26.469Z,27.83
2019-03-22T12:13:31.289Z,27.68
2019-03-22T12:14:36.083Z,27.42
2019-03-22T12:15:41.084Z,27.45
2019-03-22T12:16:45.958Z,27.23
2019-03-22T12:17:50.497Z,27.38
2019-03-22T12:18:55.293Z,27.60
2019-03-22T12:19:59.818Z,27.66
2019-03-22T12:21:04.583Z,27.70
2019-03-22T12:22:09.024Z,27.76
2019-03-22T12:23:13.717Z,27.76
2019-03-22T12:24:18.784Z,27.71
2019-03-22T12:25:24.099Z,27.65
2019-03-22T12:26:28.540Z,27.59
2019-03-22T12:27:36.688Z,27.38
2019-03-22T12:28:39.079Z,27.52
2019-03-22T12:29:43.771Z,27.52
2019-03-22T12:30:48.156Z,27.31
2019-03-22T12:31:52.954Z,27.16
2019-03-22T12:32:57.387Z,27.10
2019-03-22T12:34:04.171Z,26.95
2019-03-22T12:35:09.411Z,27.10
2019-03-22T12:36:13.865Z,27.24
2019-03-22T12:37:18.976Z,27.31
2019-03-22T12:38:23.420Z,27.27
2019-03-22T12:39:27.867Z,27.34
2019-03-22T12:40:32.325Z,27.48
2019-03-22T12:41:37.360Z,27.72
2019-03-22T12:42:42.308Z,27.90
2019-03-22T12:43:47.089Z,28.00
2019-03-22T12:44:51.603Z,28.00
2019-03-22T12:45:56.409Z,28.07
2019-03-22T12:47:00.946Z,28.06
2019-03-22T12:48:05.556Z,28.00
2019-03-22T12:49:10.323Z,27.93
2019-03-22T12:50:15.523Z,27.98
2019-03-22T12:51:20.332Z,28.06
2019-03-22T12:52:25.079Z,28.19
2019-03-22T12:53:29.959Z,28.12
2019-03-22T12:54:34.396Z,28.01
2019-03-22T12:55:39.600Z,28.07
2019-03-22T12:56:44.708Z,27.76
2019-03-22T12:57:49.944Z,27.73
2019-03-22T12:58:54.660Z,27.71
2019-03-22T12:59:59.100Z,27.71
2019-03-22T13:01:03.989Z,27.70
2019-03-22T13:02:08.771Z,27.82
2019-03-22T13:03:13.475Z,27.80
2019-03-22T13:04:18.248Z,27.75
2019-03-22T13:05:23.126Z,27.67
2019-03-22T13:06:27.567Z,27.54
2019-03-22T13:07:32.300Z,27.54
2019-03-22T13:08:36.747Z,27.57
2019-03-22T13:09:41.456Z,27.80
2019-03-22T13:10:46.503Z,28.04
2019-03-22T13:11:50.953Z,28.11
2019-03-22T13:12:55.694Z,28.19
2019-03-22T13:14:00.310Z,28.26
2019-03-22T13:15:05.209Z,28.36
2019-03-22T13:16:09.672Z,28.47
2019-03-22T13:17:14.120Z,28.56
2019-03-22T13:18:19.061Z,28.72
2019-03-22T13:19:23.787Z,28.73
2019-03-22T13:20:28.473Z,28.77
2019-03-22T13:21:33.221Z,28.76
2019-03-22T13:22:37.714Z,28.86
2019-03-22T13:23:43.264Z,28.95
2019-03-22T13:24:48.399Z,28.91
2019-03-22T13:25:52.857Z,29.01
2019-03-22T13:26:57.627Z,29.11
2019-03-22T13:28:02.000Z,29.22
2019-03-22T13:29:06.704Z,29.04
2019-03-22T13:30:11.571Z,29.11
2019-03-22T13:31:16.008Z,29.24
2019-03-22T13:32:20.688Z,29.03
2019-03-22T13:33:25.038Z,29.02
2019-03-22T13:34:29.730Z,28.92
2019-03-22T13:35:34.364Z,28.96
2019-03-22T13:36:38.725Z,29.09
2019-03-22T13:37:43.143Z,29.20
2019-03-22T13:38:47.799Z,28.85
2019-03-22T13:39:52.396Z,28.68
2019-03-22T13:40:57.404Z,28.83
2019-03-22T13:42:01.749Z,28.81
2019-03-22T13:43:06.488Z,28.87
2019-03-22T13:44:11.077Z,28.99
2019-03-22T13:45:15.815Z,28.99
2019-03-22T13:46:20.419Z,28.86
2019-03-22T13:47:25.098Z,28.63
2019-03-22T13:48:29.707Z,28.41
2019-03-22T13:49:34.049Z,28.21
2019-03-22T13:50:38.723Z,27.96
2019-03-22T13:51:43.223Z,27.79
2019-03-22T13:52:47.955Z,27.92
2019-03-22T13:53:52.302Z,28.05
2019-03-22T13:54:56.827Z,28.19
2019-03-22T13:56:01.521Z,28.20
2019-03-22T13:57:06.340Z,28.29
2019-03-22T13:58:11.103Z,28.36